Time;durP1;ratioP1;P1;durP2;ratioP2;P2;SDS_P1;SDS_P2;PMS_P1;PMS_P2;Temp;Humidity;BMP_temperature;BMP_pressure;BME280_temperature;BME280_humidity;BME280_pressure;Samples;Min_cycle;Max_cycle;Signal;HPM_P1;HPM_P2
2021/11/06 00:00:21;;;;;;;30.15;18.30;;;9.70;99.90;;;;;;5088791;28;20059;-69
2021/11/06 00:02:48;;;;;;;25.77;16.75;;;9.70;99.90;;;;;;5088008;28;20480;-68
2021/11/06 00:05:15;;;;;;;26.17;18.25;;;9.70;99.90;;;;;;5088014;28;20122;-69
2021/11/06 00:07:42;;;;;;;27.77;17.05;;;9.70;99.90;;;;;;5087090;28;20055;-69
2021/11/06 00:10:10;;;;;;;25.02;17.25;;;9.70;99.90;;;;;;5087648;28;20036;-69
2021/11/06 00:12:37;;;;;;;26.33;18.20;;;9.60;99.90;;;;;;5087692;28;20044;-69
2021/11/06 00:15:05;;;;;;;26.08;17.63;;;9.70;99.90;;;;;;5089276;28;20044;-70
2021/11/06 00:17:33;;;;;;;35.42;18.48;;;9.70;99.90;;;;;;5069847;28;20044;-69
2021/11/06 00:20:00;;;;;;;26.65;16.00;;;9.60;99.90;;;;;;5085245;28;20074;-70
2021/11/06 00:22:27;;;;;;;22.95;15.02;;;9.60;99.90;;;;;;5089138;28;20071;-68
2021/11/06 00:24:54;;;;;;;24.05;16.67;;;9.70;99.90;;;;;;5087218;28;20051;-70
2021/11/06 00:27:21;;;;;;;26.67;15.98;;;9.70;99.90;;;;;;5090215;28;20085;-68
2021/11/06 00:29:48;;;;;;;23.60;14.93;;;9.70;99.90;;;;;;5098949;28;20059;-70
2021/11/06 00:32:15;;;;;;;20.20;14.93;;;9.60;99.90;;;;;;5092535;28;20058;-69
2021/11/06 00:34:42;;;;;;;25.40;14.68;;;9.50;99.90;;;;;;5092368;28;20048;-68
2021/11/06 00:37:08;;;;;;;25.17;14.27;;;9.50;99.90;;;;;;5092180;28;20056;-68
2021/11/06 00:39:37;;;;;;;25.38;14.45;;;9.50;99.90;;;;;;5087224;28;20070;-69
2021/11/06 00:42:04;;;;;;;23.42;14.38;;;9.40;99.90;;;;;;5090692;28;20095;-72
2021/11/06 00:44:31;;;;;;;20.88;12.25;;;9.40;99.90;;;;;;5091898;28;20048;-68
2021/11/06 00:46:58;;;;;;;20.17;12.93;;;9.30;99.90;;;;;;5090674;28;20044;-68
2021/11/06 00:49:26;;;;;;;19.55;12.18;;;9.20;99.90;;;;;;5092483;28;20068;-69
2021/11/06 00:51:53;;;;;;;18.15;11.45;;;9.20;99.90;;;;;;5091914;28;20133;-70
2021/11/06 00:54:20;;;;;;;21.63;13.00;;;9.10;99.90;;;;;;5092919;28;20040;-69
2021/11/06 00:56:47;;;;;;;19.33;13.18;;;9.00;99.90;;;;;;5092882;28;20052;-68
2021/11/06 00:59:15;;;;;;;20.80;12.43;;;9.00;99.90;;;;;;5105652;28;20043;-69
2021/11/06 01:01:42;;;;;;;22.33;12.27;;;8.90;99.90;;;;;;5090865;28;20048;-68
2021/11/06 01:04:09;;;;;;;22.67;13.50;;;8.90;99.90;;;;;;5092166;28;20408;-69
2021/11/06 01:06:36;;;;;;;18.35;12.88;;;8.80;99.90;;;;;;5091053;28;20055;-69
2021/11/06 01:09:03;;;;;;;21.02;13.18;;;8.70;99.90;;;;;;5092164;28;20063;-69
2021/11/06 01:11:30;;;;;;;18.55;11.75;;;8.70;99.90;;;;;;5092716;28;20044;-69
2021/11/06 01:13:57;;;;;;;19.73;13.20;;;8.70;99.90;;;;;;5091255;28;20492;-68
2021/11/06 01:16:24;;;;;;;22.10;13.90;;;8.60;99.90;;;;;;5091148;28;20063;-68
2021/11/06 01:18:51;;;;;;;19.40;13.55;;;8.60;99.90;;;;;;5091873;28;20476;-69
2021/11/06 01:21:18;;;;;;;19.05;12.65;;;8.60;99.90;;;;;;5090744;28;20074;-68
2021/11/06 01:23:45;;;;;;;19.63;12.60;;;8.60;99.90;;;;;;5090289;28;20059;-68
2021/11/06 01:26:13;;;;;;;20.02;12.57;;;8.70;99.90;;;;;;5090296;28;20098;-69
2021/11/06 01:28:40;;;;;;;18.75;13.23;;;8.70;99.90;;;;;;5093584;28;20387;-69
2021/11/06 01:31:07;;;;;;;20.17;13.02;;;8.80;99.90;;;;;;5088964;28;20416;-69
2021/11/06 01:33:34;;;;;;;19.00;12.20;;;8.80;99.90;;;;;;5090960;28;20104;-69
2021/11/06 01:36:01;;;;;;;22.98;12.90;;;8.80;99.90;;;;;;5090971;28;20058;-68
2021/11/06 01:38:28;;;;;;;19.40;13.20;;;8.90;99.90;;;;;;5068335;28;20512;-70
2021/11/06 01:40:55;;;;;;;22.77;13.43;;;9.00;99.90;;;;;;5083994;28;20048;-69
2021/11/06 01:43:22;;;;;;;16.23;11.07;;;9.00;99.90;;;;;;5089423;28;20040;-69
2021/11/06 01:45:59;;;;;;;18.00;11.48;;;9.00;99.90;;;;;;5090939;28;20086;-75
2021/11/06 01:48:27;;;;;;;19.92;12.32;;;9.10;99.90;;;;;;5088728;28;20052;-69
2021/11/06 01:50:56;;;;;;;16.40;11.18;;;9.10;99.90;;;;;;5090008;28;20040;-69
2021/11/06 01:53:23;;;;;;;17.13;11.50;;;9.10;99.90;;;;;;5090330;28;20051;-70
2021/11/06 01:55:55;;;;;;;16.50;11.13;;;9.20;99.90;;;;;;5089157;28;20082;-69
2021/11/06 01:58:22;;;;;;;27.98;10.55;;;9.20;99.90;;;;;;5093451;28;20039;-69
2021/11/06 02:00:49;;;;;;;18.48;11.45;;;9.30;99.90;;;;;;5090331;28;20054;-71
2021/11/06 02:03:17;;;;;;;16.63;9.05;;;9.30;99.90;;;;;;5091212;28;20044;-70
2021/11/06 02:05:43;;;;;;;16.10;9.63;;;9.30;99.90;;;;;;5090796;28;20051;-71
2021/11/06 02:08:12;;;;;;;16.00;8.43;;;9.40;99.90;;;;;;5089710;28;20039;-69
2021/11/06 02:10:40;;;;;;;12.40;8.63;;;9.40;99.90;;;;;;5088540;28;20044;-68
2021/11/06 02:13:08;;;;;;;18.55;9.82;;;9.40;99.90;;;;;;5090159;28;20471;-70
2021/11/06 02:15:35;;;;;;;12.40;8.80;;;9.40;99.90;;;;;;5088725;28;20097;-70
2021/11/06 02:18:02;;;;;;;12.23;8.80;;;9.40;99.90;;;;;;5071010;28;20052;-70
2021/11/06 02:20:29;;;;;;;11.93;7.70;;;9.50;99.90;;;;;;5067885;28;20060;-70
2021/11/06 02:22:56;;;;;;;12.05;7.82;;;9.50;99.90;;;;;;5084864;28;20479;-68
2021/11/06 02:25:23;;;;;;;15.13;8.45;;;9.50;99.90;;;;;;5068061;28;20052;-68
2021/11/06 02:28:10;;;;;;;18.75;7.95;;;9.60;99.90;;;;;;5088867;28;20052;-69
2021/11/06 02:30:37;;;;;;;10.75;5.32;;;9.60;99.90;;;;;;5089140;28;20052;-69
2021/11/06 02:33:05;;;;;;;9.40;5.45;;;9.60;99.90;;;;;;5089252;28;20044;-68
2021/11/06 02:35:32;;;;;;;11.10;5.60;;;9.70;99.90;;;;;;5088504;28;20064;-70
2021/11/06 02:37:59;;;;;;;8.70;5.25;;;9.70;99.90;;;;;;5087836;28;20067;-70
2021/11/06 02:40:26;;;;;;;9.73;5.63;;;9.80;99.90;;;;;;5089739;28;20044;-70
2021/11/06 02:42:53;;;;;;;10.13;6.10;;;9.80;99.90;;;;;;5089791;28;20043;-69
2021/11/06 02:45:20;;;;;;;9.30;4.85;;;9.90;99.90;;;;;;5067759;28;20076;-69
2021/11/06 02:47:48;;;;;;;11.55;6.07;;;9.90;99.90;;;;;;5071745;28;20050;-69
2021/11/06 02:50:15;;;;;;;8.43;5.75;;;9.90;99.90;;;;;;5088990;28;20594;-68
2021/11/06 02:52:43;;;;;;;13.93;6.03;;;9.90;99.90;;;;;;5089433;28;20514;-68
2021/11/06 02:55:10;;;;;;;12.23;6.20;;;10.00;99.90;;;;;;5093223;28;20047;-68
2021/11/06 02:57:37;;;;;;;12.30;6.80;;;10.00;99.90;;;;;;5099764;28;20062;-69
2021/11/06 03:00:06;;;;;;;12.27;6.43;;;10.00;99.90;;;;;;5089268;28;20071;-70
2021/11/06 03:02:33;;;;;;;11.27;5.63;;;10.00;99.90;;;;;;5088225;28;20098;-69
2021/11/06 03:05:06;;;;;;;12.40;6.75;;;10.10;99.90;;;;;;5089545;28;20040;-69
2021/11/06 03:07:33;;;;;;;11.82;6.55;;;10.10;99.90;;;;;;5089522;28;20040;-68
2021/11/06 03:10:00;;;;;;;15.02;6.75;;;10.10;99.90;;;;;;5087503;28;20565;-71
2021/11/06 03:12:27;;;;;;;11.27;6.75;;;10.10;99.90;;;;;;5089570;28;20044;-68
2021/11/06 03:14:54;;;;;;;11.63;7.18;;;10.10;99.90;;;;;;5071497;28;20047;-69
2021/11/06 03:17:21;;;;;;;12.35;7.20;;;10.10;99.90;;;;;;5089121;28;20056;-69
2021/11/06 03:19:48;;;;;;;11.48;7.25;;;10.10;99.90;;;;;;5087911;28;20051;-68
2021/11/06 03:22:15;;;;;;;10.60;6.78;;;10.10;99.90;;;;;;5070347;28;20064;-68
2021/11/06 03:24:42;;;;;;;9.93;6.43;;;10.10;99.90;;;;;;5087547;28;20052;-69
2021/11/06 03:27:09;;;;;;;13.80;6.80;;;10.10;99.90;;;;;;5088804;28;20040;-68
2021/11/06 03:29:35;;;;;;;21.88;6.60;;;10.10;99.90;;;;;;5089065;28;20047;-68
2021/11/06 03:32:03;;;;;;;12.70;6.65;;;10.10;99.90;;;;;;5088547;28;20043;-69
2021/11/06 03:34:30;;;;;;;12.07;6.05;;;10.10;99.90;;;;;;5087506;28;20141;-68
2021/11/06 03:36:57;;;;;;;12.90;7.25;;;10.10;99.90;;;;;;5088425;28;20055;-68
2021/11/06 03:39:24;;;;;;;11.45;6.45;;;10.10;99.90;;;;;;5086229;28;20050;-68
2021/11/06 03:41:52;;;;;;;10.35;6.15;;;10.10;99.90;;;;;;5087773;28;20454;-70
2021/11/06 03:44:18;;;;;;;10.93;5.63;;;10.20;99.90;;;;;;5088140;28;20436;-69
2021/11/06 03:46:45;;;;;;;13.35;7.28;;;10.10;99.90;;;;;;5089610;28;20055;-69
2021/11/06 03:49:12;;;;;;;13.77;6.90;;;10.20;99.90;;;;;;5087256;28;20052;-69
2021/11/06 03:51:39;;;;;;;10.65;6.38;;;10.20;99.90;;;;;;5071520;28;20431;-68
2021/11/06 03:54:07;;;;;;;14.57;7.18;;;10.20;99.90;;;;;;5089219;28;20040;-69
2021/11/06 03:56:34;;;;;;;12.43;6.90;;;10.20;99.90;;;;;;5087702;28;20087;-70
2021/11/06 03:59:01;;;;;;;10.32;6.18;;;10.20;99.90;;;;;;5071648;28;20051;-70
2021/11/06 04:01:30;;;;;;;13.15;6.18;;;10.20;99.90;;;;;;5089859;28;20048;-69
2021/11/06 04:03:57;;;;;;;11.80;7.38;;;10.20;99.90;;;;;;5091832;28;20054;-69
2021/11/06 04:06:24;;;;;;;12.30;6.00;;;10.20;99.90;;;;;;5091964;28;20048;-68
2021/11/06 04:08:54;;;;;;;11.13;6.57;;;10.20;99.90;;;;;;5091904;28;20044;-69
2021/11/06 04:11:21;;;;;;;12.32;7.15;;;10.20;99.90;;;;;;5092393;28;20047;-69
2021/11/06 04:13:48;;;;;;;17.48;6.75;;;10.20;99.90;;;;;;5092720;28;20048;-69
2021/11/06 04:16:16;;;;;;;10.35;6.20;;;10.20;99.90;;;;;;5092789;28;20049;-68
2021/11/06 04:18:42;;;;;;;12.10;7.40;;;10.20;99.90;;;;;;5091446;28;20059;-70
2021/11/06 04:21:09;;;;;;;11.75;7.43;;;10.10;99.90;;;;;;5069920;28;20412;-69
2021/11/06 04:23:36;;;;;;;14.30;7.47;;;10.10;99.90;;;;;;5087417;28;20052;-69
2021/11/06 04:26:04;;;;;;;12.75;7.40;;;10.10;99.90;;;;;;5091944;28;20109;-68
2021/11/06 04:28:31;;;;;;;12.32;7.22;;;10.10;99.90;;;;;;5101071;28;20051;-68
2021/11/06 04:30:58;;;;;;;10.35;6.70;;;10.10;99.90;;;;;;5090576;28;20040;-69
2021/11/06 04:33:25;;;;;;;11.70;7.25;;;10.10;99.90;;;;;;5091209;28;20468;-69
2021/11/06 04:35:52;;;;;;;15.18;6.70;;;10.10;99.90;;;;;;5091915;28;20445;-69
2021/11/06 04:38:18;;;;;;;11.30;7.50;;;10.10;99.90;;;;;;5091995;28;20063;-69
2021/11/06 04:40:45;;;;;;;13.07;7.80;;;10.10;99.90;;;;;;5092135;28;20123;-69
2021/11/06 04:43:12;;;;;;;11.23;7.68;;;10.20;99.90;;;;;;5070533;28;20450;-70
2021/11/06 04:45:39;;;;;;;13.38;7.25;;;10.10;99.90;;;;;;5092349;28;20839;-72
2021/11/06 04:48:06;;;;;;;16.70;8.52;;;10.10;99.90;;;;;;5089946;28;20104;-69
2021/11/06 04:50:33;;;;;;;12.02;6.80;;;10.20;99.90;;;;;;5092493;28;20474;-71
2021/11/06 04:53:00;;;;;;;11.50;6.75;;;10.20;99.90;;;;;;5090433;28;20047;-69
2021/11/06 04:55:27;;;;;;;11.10;6.90;;;10.20;99.90;;;;;;5089889;28;20056;-68
2021/11/06 04:57:54;;;;;;;15.50;10.10;;;10.10;99.90;;;;;;5101547;28;20044;-72
2021/11/06 05:00:21;;;;;;;75.65;57.42;;;10.20;99.90;;;;;;5090365;28;20044;-68
2021/11/06 05:02:48;;;;;;;28.58;22.30;;;10.20;99.90;;;;;;5068357;28;20098;-72
2021/11/06 05:05:16;;;;;;;23.65;17.35;;;10.20;99.90;;;;;;5091200;28;20047;-69
2021/11/06 05:07:43;;;;;;;12.30;7.72;;;10.20;99.90;;;;;;5091532;28;20074;-69
2021/11/06 05:10:10;;;;;;;16.52;9.25;;;10.20;99.90;;;;;;5089590;28;20472;-68
2021/11/06 05:12:37;;;;;;;15.15;8.60;;;10.20;99.90;;;;;;5091214;28;20096;-70
2021/11/06 05:15:05;;;;;;;13.65;7.65;;;10.20;99.90;;;;;;5091165;28;20059;-70
2021/11/06 05:17:32;;;;;;;10.55;7.10;;;10.20;99.90;;;;;;5090795;28;20055;-70
2021/11/06 05:19:59;;;;;;;10.30;7.13;;;10.20;99.90;;;;;;5089904;28;20036;-68
2021/11/06 05:22:26;;;;;;;10.27;6.85;;;10.20;99.90;;;;;;5073202;28;20403;-69
2021/11/06 05:24:53;;;;;;;10.82;6.90;;;10.10;99.90;;;;;;5074943;28;20047;-68
2021/11/06 05:27:20;;;;;;;10.60;6.80;;;10.10;99.90;;;;;;5090417;28;20044;-69
2021/11/06 05:29:53;;;;;;;13.05;7.50;;;10.20;99.90;;;;;;5091564;28;20044;-68
2021/11/06 05:32:20;;;;;;;9.55;6.88;;;10.10;99.90;;;;;;5090133;28;20052;-68
2021/11/06 05:34:47;;;;;;;12.73;7.35;;;10.10;99.90;;;;;;5089501;28;20036;-68
2021/11/06 05:37:14;;;;;;;13.05;7.35;;;10.10;99.90;;;;;;5089714;28;20112;-68
2021/11/06 05:39:41;;;;;;;13.60;7.88;;;10.10;99.90;;;;;;5089178;28;20055;-69
2021/11/06 05:42:08;;;;;;;10.25;6.90;;;10.20;99.90;;;;;;5089356;28;20052;-68
2021/11/06 05:44:35;;;;;;;16.00;7.53;;;10.10;99.90;;;;;;5089857;28;20055;-69
2021/11/06 05:47:02;;;;;;;11.80;7.20;;;10.20;99.90;;;;;;5088886;28;20484;-70
2021/11/06 05:49:29;;;;;;;11.13;7.57;;;10.20;99.90;;;;;;5089072;28;20059;-69
2021/11/06 05:51:57;;;;;;;11.93;7.25;;;10.20;99.90;;;;;;5088925;28;20056;-69
2021/11/06 05:54:24;;;;;;;14.20;7.20;;;10.20;99.90;;;;;;5088869;28;20063;-69
2021/11/06 05:56:50;;;;;;;10.95;7.50;;;10.20;99.90;;;;;;5089463;28;20453;-70
2021/11/06 05:59:17;;;;;;;14.98;6.47;;;10.20;99.90;;;;;;5095318;28;20044;-69
2021/11/06 06:01:44;;;;;;;10.05;6.10;;;10.20;99.90;;;;;;5089845;28;20096;-70
2021/11/06 06:04:11;;;;;;;11.25;6.57;;;10.10;99.90;;;;;;5089024;28;20052;-71
2021/11/06 06:06:38;;;;;;;9.35;6.00;;;10.10;99.90;;;;;;5089838;28;20051;-69
2021/11/06 06:09:06;;;;;;;9.82;6.68;;;10.10;99.90;;;;;;5089086;28;20539;-70
2021/11/06 06:11:33;;;;;;;10.68;6.65;;;10.00;99.90;;;;;;5089583;28;20062;-69
2021/11/06 06:14:00;;;;;;;13.35;6.07;;;10.00;99.90;;;;;;5088680;28;20047;-69
2021/11/06 06:16:27;;;;;;;12.23;7.97;;;10.00;99.90;;;;;;5090170;28;20510;-68
2021/11/06 06:18:54;;;;;;;8.00;5.57;;;10.00;99.90;;;;;;5089370;28;20508;-69
2021/11/06 06:21:21;;;;;;;8.02;5.63;;;9.90;99.90;;;;;;5090041;28;20040;-69
2021/11/06 06:23:48;;;;;;;12.35;7.07;;;9.80;99.90;;;;;;5088260;28;20088;-69
2021/11/06 06:26:16;;;;;;;11.55;5.50;;;9.90;99.90;;;;;;5088767;28;20475;-69
2021/11/06 06:28:42;;;;;;;12.02;6.10;;;9.80;99.90;;;;;;5071778;28;20048;-68
2021/11/06 06:31:09;;;;;;;12.13;6.40;;;9.80;99.90;;;;;;5090669;28;20113;-68
2021/11/06 06:33:36;;;;;;;8.13;4.95;;;9.80;99.90;;;;;;5088055;28;20055;-68
2021/11/06 06:36:03;;;;;;;9.77;5.40;;;9.80;99.90;;;;;;5090159;28;20082;-69
2021/11/06 06:38:31;;;;;;;9.95;5.63;;;9.70;99.90;;;;;;5090295;28;20040;-69
2021/11/06 06:40:58;;;;;;;8.30;4.80;;;9.70;99.90;;;;;;5088708;28;20088;-69
2021/11/06 06:43:25;;;;;;;11.10;5.43;;;9.70;99.90;;;;;;5070910;28;20066;-69
2021/11/06 06:45:52;;;;;;;9.00;5.22;;;9.70;99.90;;;;;;5087141;28;20039;-71
2021/11/06 06:48:19;;;;;;;8.43;4.82;;;9.70;99.90;;;;;;5087867;28;20059;-70
2021/11/06 06:50:47;;;;;;;9.57;4.47;;;9.60;99.90;;;;;;5090457;28;20044;-68
2021/11/06 06:53:14;;;;;;;9.43;4.68;;;9.60;99.90;;;;;;5089689;28;20048;-69
2021/11/06 06:55:41;;;;;;;9.57;5.38;;;9.60;99.90;;;;;;5071323;28;20044;-69
2021/11/06 06:58:08;;;;;;;8.27;4.70;;;9.60;99.90;;;;;;5091581;28;20476;-69
2021/11/06 07:00:35;;;;;;;10.80;4.45;;;9.60;99.90;;;;;;5069694;28;20403;-71
2021/11/06 07:03:03;;;;;;;9.02;4.70;;;9.60;99.90;;;;;;5087998;28;20533;-70
2021/11/06 07:05:30;;;;;;;9.45;4.80;;;9.50;99.90;;;;;;5086707;28;20063;-69
2021/11/06 07:07:58;;;;;;;6.45;5.10;;;9.50;99.90;;;;;;5086259;28;20040;-70
2021/11/06 07:10:25;;;;;;;9.10;4.22;;;9.50;99.90;;;;;;5087405;28;20112;-70
2021/11/06 07:12:53;;;;;;;6.95;4.53;;;9.50;99.90;;;;;;5087628;28;20408;-68
2021/11/06 07:15:19;;;;;;;6.95;4.13;;;9.50;99.90;;;;;;5067577;28;20053;-69
2021/11/06 07:17:46;;;;;;;7.18;4.60;;;9.60;99.90;;;;;;5086285;28;20051;-68
2021/11/06 07:20:15;;;;;;;9.30;4.95;;;9.60;99.90;;;;;;5088324;28;20036;-70
2021/11/06 07:22:42;;;;;;;10.50;4.47;;;9.70;99.90;;;;;;5088186;28;20048;-69
2021/11/06 07:25:09;;;;;;;5.57;3.83;;;9.70;99.90;;;;;;5088793;28;20056;-69
2021/11/06 07:27:36;;;;;;;147.75;110.78;;;9.70;99.90;;;;;;5086883;28;20073;-68
2021/11/06 07:30:05;;;;;;;35.13;23.88;;;9.70;99.90;;;;;;5099964;28;20059;-70
2021/11/06 07:32:32;;;;;;;18.88;13.40;;;9.80;99.90;;;;;;5083612;28;20051;-70
2021/11/06 07:34:59;;;;;;;7.68;4.95;;;9.80;99.90;;;;;;5088774;28;20077;-69
2021/11/06 07:37:26;;;;;;;9.77;4.43;;;9.80;99.90;;;;;;5091328;28;20055;-68
2021/11/06 07:39:53;;;;;;;9.20;4.22;;;9.80;99.90;;;;;;5092276;28;20136;-70
2021/11/06 07:42:20;;;;;;;6.15;3.55;;;9.80;99.90;;;;;;5092033;28;20063;-69
2021/11/06 07:44:47;;;;;;;6.63;3.33;;;9.80;99.90;;;;;;5091816;28;20054;-70
2021/11/06 07:47:14;;;;;;;6.38;3.60;;;9.80;99.90;;;;;;5091313;28;20036;-71
2021/11/06 07:49:41;;;;;;;8.07;3.70;;;9.80;99.90;;;;;;5091638;28;20052;-68
2021/11/06 07:52:08;;;;;;;9.00;4.20;;;9.80;99.90;;;;;;5092719;28;20459;-68
2021/11/06 07:54:35;;;;;;;7.13;4.47;;;9.80;99.90;;;;;;5092911;28;20499;-72
2021/11/06 07:57:02;;;;;;;8.98;4.47;;;9.80;99.90;;;;;;5093866;28;20040;-68
2021/11/06 07:59:29;;;;;;;5.20;4.03;;;9.90;99.90;;;;;;5100341;28;20059;-69
2021/11/06 08:01:56;;;;;;;5.97;3.97;;;9.90;99.90;;;;;;5091838;28;20044;-70
2021/11/06 08:04:23;;;;;;;6.00;3.35;;;9.90;99.90;;;;;;5092294;28;20048;-70
2021/11/06 08:06:50;;;;;;;7.50;3.42;;;10.00;99.90;;;;;;5091263;28;20044;-70
2021/11/06 08:09:17;;;;;;;5.45;3.00;;;10.10;99.90;;;;;;5091113;28;20503;-70
2021/11/06 08:11:44;;;;;;;5.82;3.20;;;10.10;99.90;;;;;;5092780;28;20128;-70
2021/11/06 08:14:11;;;;;;;5.25;3.00;;;10.20;99.90;;;;;;5092023;28;20048;-69
2021/11/06 08:16:38;;;;;;;6.35;3.13;;;10.20;99.90;;;;;;5092216;28;20070;-70
2021/11/06 08:19:05;;;;;;;5.45;2.90;;;10.20;99.90;;;;;;5070860;28;20064;-69
2021/11/06 08:21:32;;;;;;;7.70;2.92;;;10.30;99.90;;;;;;5089936;28;20048;-71
2021/11/06 08:23:59;;;;;;;5.40;2.85;;;10.30;99.90;;;;;;5092766;28;20048;-69
2021/11/06 08:26:26;;;;;;;5.90;3.28;;;10.40;99.90;;;;;;5092362;28;20051;-69
2021/11/06 08:28:53;;;;;;;6.57;3.17;;;10.40;99.90;;;;;;5093346;28;20431;-68
2021/11/06 08:31:21;;;;;;;7.45;3.00;;;10.50;99.90;;;;;;5090804;28;20054;-69
2021/11/06 08:33:47;;;;;;;8.48;3.58;;;10.50;99.90;;;;;;5091085;28;20059;-68
2021/11/06 08:36:15;;;;;;;5.57;2.83;;;10.60;99.90;;;;;;5091171;28;20044;-69
2021/11/06 08:38:42;;;;;;;4.93;3.20;;;10.70;99.90;;;;;;5090435;28;20044;-69
2021/11/06 08:41:09;;;;;;;4.80;2.55;;;10.80;99.90;;;;;;5092181;28;20036;-69
2021/11/06 08:43:36;;;;;;;4.20;2.50;;;10.80;99.90;;;;;;5091502;28;20096;-69
2021/11/06 08:46:04;;;;;;;4.60;2.55;;;10.90;99.90;;;;;;5090434;28;20051;-69
2021/11/06 08:48:32;;;;;;;8.52;3.17;;;11.00;99.90;;;;;;5090616;28;20097;-70
2021/11/06 08:50:59;;;;;;;6.53;2.65;;;11.10;99.50;;;;;;5073376;28;20108;-69
2021/11/06 08:53:26;;;;;;;6.30;2.53;;;11.10;99.00;;;;;;5090081;28;20070;-70
2021/11/06 08:55:53;;;;;;;4.15;2.00;;;11.20;99.20;;;;;;5091046;28;20040;-69
2021/11/06 08:58:20;;;;;;;6.20;2.22;;;11.20;98.60;;;;;;5090999;28;20051;-70
2021/11/06 09:00:48;;;;;;;4.82;2.05;;;11.20;98.80;;;;;;5090175;28;20040;-69
2021/11/06 09:03:20;;;;;;;4.85;2.70;;;11.20;98.70;;;;;;5089872;28;20499;-69
2021/11/06 09:05:51;;;;;;;4.45;2.20;;;11.30;99.00;;;;;;5092283;28;20051;-69
2021/11/06 09:08:44;;;;;;;5.45;2.00;;;11.30;98.70;;;;;;5091661;28;20056;-69
2021/11/06 09:11:12;;;;;;;4.70;2.00;;;11.30;99.00;;;;;;5071756;28;20480;-71
2021/11/06 09:13:39;;;;;;;6.97;2.38;;;11.30;98.70;;;;;;5091665;28;20514;-69
2021/11/06 09:16:07;;;;;;;12.13;2.50;;;11.30;98.30;;;;;;5090813;28;20051;-68
2021/11/06 09:18:35;;;;;;;5.40;2.03;;;11.30;97.90;;;;;;5087476;28;20364;-70
2021/11/06 09:21:07;;;;;;;4.93;2.10;;;11.30;98.60;;;;;;5090886;28;20116;-70
2021/11/06 09:23:34;;;;;;;24.75;17.85;;;11.30;98.50;;;;;;5090481;28;20048;-68
2021/11/06 09:26:01;;;;;;;10.15;7.50;;;11.30;98.50;;;;;;5072233;28;20470;-68
2021/11/06 09:28:28;;;;;;;5.53;2.47;;;11.30;98.50;;;;;;5091971;28;20074;-69
2021/11/06 09:30:56;;;;;;;3.53;2.50;;;11.30;98.70;;;;;;5092087;28;20055;-69
2021/11/06 09:33:23;;;;;;;4.55;2.20;;;11.30;98.30;;;;;;5072479;28;20130;-69
2021/11/06 09:35:50;;;;;;;3.63;2.13;;;11.30;98.50;;;;;;5100608;28;20051;-72
2021/11/06 09:38:17;;;;;;;11.07;3.47;;;11.40;98.40;;;;;;5112151;27;20055;-75
2021/11/06 09:40:45;;;;;;;3.50;2.10;;;11.40;98.40;;;;;;5109952;28;20082;-78
2021/11/06 09:43:15;;;;;;;36.70;25.35;;;11.50;98.10;;;;;;5111142;28;20055;-69
2021/11/06 09:45:43;;;;;;;8.80;4.40;;;11.60;98.30;;;;;;5094813;28;20051;-71
2021/11/06 09:48:11;;;;;;;5.28;2.72;;;11.60;97.50;;;;;;5105575;28;20543;-73
2021/11/06 09:50:38;;;;;;;9.90;6.45;;;11.70;98.20;;;;;;5072551;28;20056;-74
2021/11/06 09:53:05;;;;;;;4.25;2.05;;;11.70;97.70;;;;;;5090984;28;20134;-74
2021/11/06 09:55:32;;;;;;;4.35;2.00;;;11.80;97.20;;;;;;5090968;28;20043;-74
2021/11/06 09:57:59;;;;;;;4.68;1.85;;;11.80;98.00;;;;;;5090139;28;20047;-74
2021/11/06 10:00:26;;;;;;;3.05;2.00;;;11.90;97.50;;;;;;5098257;28;20170;-74
2021/11/06 10:02:57;;;;;;;6.35;2.65;;;12.00;96.60;;;;;;5098634;28;20481;-74
2021/11/06 10:05:45;;;;;;;2.85;1.80;;;12.10;96.90;;;;;;5074385;28;20044;-74
2021/11/06 10:08:19;;;;;;;4.28;1.98;;;12.20;96.40;;;;;;5091817;28;20109;-75
2021/11/06 10:10:46;;;;;;;3.15;1.85;;;12.20;96.90;;;;;;5091099;28;20056;-74
2021/11/06 10:13:13;;;;;;;3.35;2.08;;;12.20;96.30;;;;;;5101458;28;20050;-73
2021/11/06 10:15:49;;;;;;;7.93;3.88;;;12.30;96.40;;;;;;5093586;28;20061;-74
2021/11/06 10:18:23;;;;;;;4.90;2.05;;;12.30;96.10;;;;;;5093513;28;20047;-73
2021/11/06 10:21:04;;;;;;;2.85;1.88;;;12.30;96.20;;;;;;5090965;28;20513;-73
2021/11/06 10:23:34;;;;;;;5.75;2.10;;;12.30;96.40;;;;;;5103691;28;20130;-73
2021/11/06 10:26:18;;;;;;;4.78;2.03;;;12.30;96.50;;;;;;5101216;28;20509;-73
2021/11/06 10:28:52;;;;;;;4.55;2.00;;;12.30;95.90;;;;;;5105295;28;20051;-73
2021/11/06 10:31:19;;;;;;;4.05;2.13;;;12.30;96.40;;;;;;5088126;28;20419;-73
2021/11/06 10:33:48;;;;;;;3.70;2.05;;;12.40;96.00;;;;;;5075794;28;20058;-74
2021/11/06 10:36:16;;;;;;;6.37;2.47;;;12.40;96.60;;;;;;5089416;28;20055;-73
2021/11/06 10:38:43;;;;;;;12.90;11.32;;;12.40;96.30;;;;;;5072897;28;20487;-69
2021/11/06 10:41:10;;;;;;;64.93;48.00;;;12.50;96.40;;;;;;5071997;28;20062;-72
2021/11/06 10:43:37;;;;;;;7.65;4.47;;;12.60;95.70;;;;;;5088864;28;20073;-72
2021/11/06 10:46:10;;;;;;;5.28;2.70;;;12.70;95.60;;;;;;5089299;28;20055;-72
2021/11/06 10:48:37;;;;;;;4.00;2.05;;;12.80;95.00;;;;;;5072735;28;20109;-73
2021/11/06 10:51:06;;;;;;;4.65;1.67;;;12.80;94.80;;;;;;5089437;28;20060;-73
2021/11/06 10:53:45;;;;;;;3.28;2.35;;;12.90;95.00;;;;;;5052845;28;20052;-72
2021/11/06 10:56:29;;;;;;;3.95;2.20;;;12.90;94.00;;;;;;5084996;28;20136;-73
2021/11/06 10:58:59;;;;;;;6.45;2.10;;;12.90;94.10;;;;;;5079801;28;20044;-72
2021/11/06 11:01:33;;;;;;;4.68;1.90;;;12.90;94.20;;;;;;5090399;28;20389;-73
2021/11/06 11:04:08;;;;;;;4.80;2.22;;;13.00;93.90;;;;;;5088808;28;20112;-73
2021/11/06 11:06:56;;;;;;;4.78;2.15;;;13.00;94.00;;;;;;5088686;28;20047;-73
2021/11/06 11:09:29;;;;;;;3.65;2.10;;;13.10;94.50;;;;;;5088665;28;20095;-73
2021/11/06 11:11:58;;;;;;;5.35;2.47;;;13.10;93.10;;;;;;5087684;28;20044;-73
2021/11/06 11:14:27;;;;;;;3.20;1.83;;;13.10;94.70;;;;;;5089632;28;20056;-73
2021/11/06 11:16:57;;;;;;;6.28;1.95;;;13.10;94.40;;;;;;5089959;28;20127;-71
2021/11/06 11:19:44;;;;;;;19.85;15.10;;;13.00;93.20;;;;;;5089652;28;20040;-73
2021/11/06 11:22:25;;;;;;;39.20;27.60;;;13.00;93.60;;;;;;5090190;28;20064;-73
2021/11/06 11:24:52;;;;;;;14.02;6.18;;;13.00;93.60;;;;;;5087334;28;20127;-71
2021/11/06 11:27:39;;;;;;;191.38;149.02;;;13.00;94.00;;;;;;5094208;28;20137;-72
2021/11/06 11:30:06;;;;;;;9.50;6.63;;;13.00;94.30;;;;;;5077704;28;20048;-71
2021/11/06 11:32:33;;;;;;;5.28;3.17;;;13.00;94.30;;;;;;5090705;28;20578;-73
2021/11/06 11:35:00;;;;;;;5.05;2.25;;;13.00;93.90;;;;;;5108791;28;20039;-71
2021/11/06 11:37:27;;;;;;;4.50;1.80;;;13.00;94.60;;;;;;5110363;28;20048;-71
2021/11/06 11:39:54;;;;;;;3.85;1.55;;;13.10;94.30;;;;;;5109069;28;20052;-72
2021/11/06 11:42:35;;;;;;;4.22;1.70;;;13.10;93.00;;;;;;5084959;28;20105;-71
2021/11/06 11:45:24;;;;;;;3.60;1.83;;;13.10;93.70;;;;;;5088595;28;20067;-71
2021/11/06 11:48:00;;;;;;;4.43;1.63;;;13.10;93.20;;;;;;5100797;28;20579;-72
2021/11/06 11:50:31;;;;;;;32.47;21.42;;;13.20;94.20;;;;;;5087953;28;20450;-71
2021/11/06 11:53:02;;;;;;;4.60;3.38;;;13.20;93.40;;;;;;5091709;28;20081;-72
2021/11/06 11:55:44;;;;;;;5.07;1.95;;;13.30;93.20;;;;;;5089551;28;20063;-74
2021/11/06 11:58:16;;;;;;;4.15;2.42;;;13.30;92.90;;;;;;5088325;28;20127;-72
2021/11/06 12:01:01;;;;;;;3.22;1.80;;;13.40;92.90;;;;;;5088985;28;20447;-72
2021/11/06 12:03:35;;;;;;;4.18;1.70;;;13.50;93.40;;;;;;5071594;28;20099;-73
2021/11/06 12:06:21;;;;;;;4.15;1.80;;;13.40;92.20;;;;;;5089259;28;20080;-70
2021/11/06 12:08:58;;;;;;;13.70;9.63;;;13.40;92.80;;;;;;5088660;28;20493;-71
2021/11/06 12:11:31;;;;;;;72.38;65.22;;;13.40;92.50;;;;;;5089129;28;20050;-68
2021/11/06 12:13:59;;;;;;;6.38;3.80;;;13.50;92.30;;;;;;5087619;28;20048;-74
2021/11/06 12:16:42;;;;;;;6.00;2.13;;;13.50;91.40;;;;;;5087463;28;20074;-73
2021/11/06 12:19:09;;;;;;;2.65;1.52;;;13.60;92.80;;;;;;5071708;28;20130;-73
2021/11/06 12:21:41;;;;;;;4.80;2.33;;;13.60;91.40;;;;;;5087923;28;20052;-73
2021/11/06 12:24:11;;;;;;;3.92;1.73;;;13.50;91.90;;;;;;5091302;28;20483;-73
2021/11/06 12:26:46;;;;;;;6.93;1.65;;;13.60;91.60;;;;;;5093066;28;20052;-75
2021/11/06 12:29:19;;;;;;;4.30;1.48;;;13.70;91.60;;;;;;5092015;28;20052;-73
2021/11/06 12:31:50;;;;;;;3.25;1.40;;;13.70;91.80;;;;;;5093380;28;20048;-75
2021/11/06 12:34:42;;;;;;;3.80;2.05;;;13.70;90.50;;;;;;5092801;28;20056;-75
2021/11/06 12:37:11;;;;;;;3.15;1.83;;;13.70;91.10;;;;;;5055240;28;20511;-70
2021/11/06 12:39:45;;;;;;;4.05;1.35;;;13.70;90.90;;;;;;5087788;28;20118;-69
2021/11/06 12:42:17;;;;;;;3.55;1.80;;;13.70;91.40;;;;;;5089157;28;20055;-70
2021/11/06 12:44:59;;;;;;;6.50;1.60;;;13.70;90.90;;;;;;5091456;28;20051;-70
2021/11/06 12:47:30;;;;;;;5.50;3.03;;;13.70;91.50;;;;;;5091178;28;20095;-68
2021/11/06 12:49:57;;;;;;;3.30;1.58;;;13.70;91.80;;;;;;5072412;28;20056;-72